Time;durP1;ratioP1;P1;durP2;ratioP2;P2;SDS_P1;SDS_P2;PMS_P1;PMS_P2;Temp;Humidity;BMP_temperature;BMP_pressure;BME280_temperature;BME280_humidity;BME280_pressure;Samples;Min_cycle;Max_cycle;Signal;HPM_P1;HPM_P2
2023/12/02 00:02:17;;;;;;;;;37.33;33.33;;;;;;;;5048531;28;12319;-78
2023/12/02 00:04:44;;;;;;;;;32.33;32.33;;;;;;;;5049795;28;8893;-78
2023/12/02 00:07:14;;;;;;;;;30.33;26.33;;;;;;;;5049278;28;11593;-78
2023/12/02 00:09:50;;;;;;;;;35.67;27.00;;;;;;;;5049424;28;11594;-78
2023/12/02 00:12:17;;;;;;;;;45.67;37.67;;;;;;;;5047948;28;8873;-78
2023/12/02 00:14:44;;;;;;;;;38.00;30.33;;;;;;;;5049789;28;9012;-78
2023/12/02 00:17:12;;;;;;;;;37.67;35.00;;;;;;;;5049031;28;8863;-80
2023/12/02 00:19:39;;;;;;;;;26.33;25.67;;;;;;;;5048679;28;8882;-78
2023/12/02 00:22:06;;;;;;;;;30.67;30.67;;;;;;;;5048713;28;8847;-77
2023/12/02 00:24:33;;;;;;;;;26.67;23.00;;;;;;;;5049299;28;8851;-77
2023/12/02 00:27:04;;;;;;;;;33.67;27.33;;;;;;;;5049428;28;8855;-78
2023/12/02 00:29:32;;;;;;;;;34.33;30.00;;;;;;;;5048721;28;8851;-78
2023/12/02 00:32:02;;;;;;;;;37.00;33.00;;;;;;;;5047468;28;8819;-77
2023/12/02 00:34:31;;;;;;;;;37.33;33.00;;;;;;;;5048834;28;8847;-77
2023/12/02 00:37:01;;;;;;;;;34.67;28.00;;;;;;;;5050456;28;9258;-78
2023/12/02 00:39:28;;;;;;;;;41.67;37.67;;;;;;;;5048811;28;9595;-79
2023/12/02 00:41:56;;;;;;;;;42.33;36.33;;;;;;;;5050386;28;8851;-77
2023/12/02 00:44:24;;;;;;;;;38.33;32.33;;;;;;;;5049583;28;8860;-78
2023/12/02 00:46:53;;;;;;;;;33.67;32.00;;;;;;;;5052010;28;8851;-79
2023/12/02 00:49:20;;;;;;;;;34.33;27.00;;;;;;;;5052073;28;8886;-78
2023/12/02 00:51:47;;;;;;;;;30.00;30.00;;;;;;;;5040495;28;8985;-77
2023/12/02 00:54:14;;;;;;;;;36.33;32.33;;;;;;;;5045355;28;8928;-78
2023/12/02 00:56:42;;;;;;;;;43.67;34.00;;;;;;;;5042754;28;8972;-78
2023/12/02 00:59:09;;;;;;;;;33.00;33.00;;;;;;;;5045756;28;8964;-78
2023/12/02 01:01:37;;;;;;;;;38.67;36.00;;;;;;;;5049729;28;8795;-78
2023/12/02 01:04:05;;;;;;;;;32.67;29.33;;;;;;;;5049663;28;8853;-77
2023/12/02 01:06:32;;;;;;;;;38.67;31.33;;;;;;;;5049348;28;8846;-78
2023/12/02 01:09:01;;;;;;;;;39.67;37.00;;;;;;;;5051799;28;8882;-78
2023/12/02 01:11:28;;;;;;;;;41.33;35.67;;;;;;;;5045472;28;8866;-78
2023/12/02 01:13:55;;;;;;;;;42.00;35.33;;;;;;;;5048949;28;8874;-77
2023/12/02 01:16:25;;;;;;;;;42.00;36.67;;;;;;;;5042686;28;9803;-77
2023/12/02 01:18:53;;;;;;;;;39.00;34.00;;;;;;;;5048213;28;8928;-78
2023/12/02 01:21:23;;;;;;;;;43.00;35.67;;;;;;;;5042438;28;8866;-77
2023/12/02 01:23:50;;;;;;;;;37.67;37.00;;;;;;;;5048640;28;8885;-78
2023/12/02 01:26:17;;;;;;;;;53.33;43.00;;;;;;;;5048007;28;9649;-77
2023/12/02 01:28:44;;;;;;;;;43.33;39.67;;;;;;;;5048541;28;8969;-78
2023/12/02 01:31:11;;;;;;;;;35.67;34.00;;;;;;;;5047268;28;8807;-77
2023/12/02 01:33:38;;;;;;;;;58.67;41.00;;;;;;;;5048477;28;8875;-78
2023/12/02 01:36:12;;;;;;;;;50.67;42.67;;;;;;;;5048155;28;8863;-77
2023/12/02 01:38:39;;;;;;;;;45.33;32.00;;;;;;;;5048313;28;8873;-78
2023/12/02 01:41:07;;;;;;;;;51.67;40.67;;;;;;;;5048004;28;8953;-77
2023/12/02 01:43:34;;;;;;;;;39.33;36.67;;;;;;;;5048322;28;8882;-78
2023/12/02 01:46:03;;;;;;;;;44.67;35.00;;;;;;;;5047663;28;11590;-78
2023/12/02 01:48:33;;;;;;;;;38.33;34.00;;;;;;;;5040555;28;9617;-78
2023/12/02 01:51:00;;;;;;;;;40.33;38.00;;;;;;;;5047467;28;8881;-78
2023/12/02 01:53:29;;;;;;;;;41.00;34.67;;;;;;;;5047401;28;8858;-78
2023/12/02 01:55:56;;;;;;;;;45.00;37.33;;;;;;;;5047637;28;8912;-78
2023/12/02 01:58:25;;;;;;;;;45.67;33.00;;;;;;;;5048570;28;8885;-77
2023/12/02 02:00:53;;;;;;;;;41.67;38.33;;;;;;;;5047914;28;8898;-77
2023/12/02 02:03:23;;;;;;;;;51.00;41.00;;;;;;;;5046843;28;8853;-77
2023/12/02 02:05:50;;;;;;;;;39.67;37.67;;;;;;;;5047250;28;8955;-78
2023/12/02 02:08:17;;;;;;;;;39.33;33.33;;;;;;;;5048036;28;8843;-77
2023/12/02 02:10:46;;;;;;;;;30.33;27.67;;;;;;;;5047704;28;8982;-77
2023/12/02 02:13:13;;;;;;;;;46.33;38.33;;;;;;;;5050772;28;8843;-77
2023/12/02 02:15:40;;;;;;;;;41.00;34.67;;;;;;;;5054020;28;8866;-78
2023/12/02 02:18:07;;;;;;;;;37.00;34.00;;;;;;;;5051147;28;8847;-78
2023/12/02 02:20:36;;;;;;;;;42.33;34.33;;;;;;;;5051749;28;8855;-78
2023/12/02 02:23:05;;;;;;;;;50.00;41.00;;;;;;;;5050795;28;9728;-78
2023/12/02 02:25:32;;;;;;;;;52.33;37.00;;;;;;;;5051345;28;8863;-78
2023/12/02 02:28:03;;;;;;;;;61.67;48.67;;;;;;;;5050279;28;9884;-77
2023/12/02 02:30:30;;;;;;;;;73.00;53.00;;;;;;;;5055379;28;8777;-78
2023/12/02 02:32:57;;;;;;;;;66.33;47.33;;;;;;;;5072840;28;8860;-77
2023/12/02 02:35:25;;;;;;;;;70.00;55.67;;;;;;;;5055720;28;8901;-78
2023/12/02 02:37:52;;;;;;;;;63.33;52.33;;;;;;;;5069561;28;8864;-78
2023/12/02 02:40:21;;;;;;;;;68.00;55.00;;;;;;;;5055065;28;8854;-76
2023/12/02 02:42:48;;;;;;;;;67.67;54.67;;;;;;;;5062866;28;8850;-77
2023/12/02 02:45:16;;;;;;;;;99.00;70.50;;;;;;;;5065448;28;8848;-77
2023/12/02 02:47:43;;;;;;;;;63.67;48.67;;;;;;;;5072029;28;8849;-78
2023/12/02 02:50:11;;;;;;;;;47.00;40.33;;;;;;;;5073302;28;9009;-78
2023/12/02 02:52:38;;;;;;;;;92.25;67.25;;;;;;;;5072765;28;8860;-78
2023/12/02 02:55:06;;;;;;;;;62.67;47.00;;;;;;;;5073464;28;8978;-78
2023/12/02 02:57:34;;;;;;;;;61.33;46.33;;;;;;;;5073914;28;8875;-77
2023/12/02 03:00:04;;;;;;;;;64.33;47.67;;;;;;;;5073179;28;8856;-78
2023/12/02 03:02:31;;;;;;;;;61.00;46.33;;;;;;;;5071341;28;8874;-78
2023/12/02 03:04:59;;;;;;;;;91.00;68.67;;;;;;;;5070404;28;9637;-79
2023/12/02 03:07:26;;;;;;;;;62.33;52.00;;;;;;;;5070630;28;8858;-78
2023/12/02 03:09:53;;;;;;;;;74.67;61.33;;;;;;;;5070288;28;8852;-77
2023/12/02 03:12:20;;;;;;;;;67.33;56.33;;;;;;;;5070633;28;9674;-78
2023/12/02 03:14:49;;;;;;;;;61.00;48.33;;;;;;;;5069725;28;8879;-78
2023/12/02 03:17:16;;;;;;;;;63.33;50.67;;;;;;;;5068872;28;8880;-78
2023/12/02 03:19:43;;;;;;;;;77.33;62.67;;;;;;;;5069893;28;8903;-77
2023/12/02 03:22:10;;;;;;;;;96.00;78.25;;;;;;;;5070040;28;8852;-77
2023/12/02 03:24:38;;;;;;;;;63.33;53.67;;;;;;;;5069954;28;8848;-78
2023/12/02 03:27:05;;;;;;;;;55.00;43.33;;;;;;;;5069754;28;8863;-78
2023/12/02 03:29:32;;;;;;;;;37.67;37.33;;;;;;;;5069578;28;8840;-78
2023/12/02 03:32:04;;;;;;;;;45.33;40.00;;;;;;;;5053346;28;8834;-77
2023/12/02 03:34:31;;;;;;;;;71.00;55.67;;;;;;;;5050147;28;8847;-78
2023/12/02 03:37:01;;;;;;;;;48.33;42.67;;;;;;;;5049615;28;9622;-78
2023/12/02 03:39:32;;;;;;;;;68.67;56.67;;;;;;;;5050212;28;9653;-78
2023/12/02 03:42:02;;;;;;;;;72.67;58.00;;;;;;;;5049343;28;8863;-78
2023/12/02 03:44:29;;;;;;;;;49.33;43.67;;;;;;;;5049821;28;8859;-78
2023/12/02 03:46:56;;;;;;;;;48.00;44.00;;;;;;;;5048872;28;9586;-77
2023/12/02 03:49:25;;;;;;;;;46.33;42.67;;;;;;;;5050174;28;8882;-78
2023/12/02 03:51:52;;;;;;;;;43.00;41.67;;;;;;;;5049650;28;8843;-77
2023/12/02 03:54:19;;;;;;;;;56.33;47.67;;;;;;;;5049323;28;8847;-78
2023/12/02 03:56:47;;;;;;;;;46.67;43.00;;;;;;;;5049380;28;8857;-79
2023/12/02 03:59:14;;;;;;;;;53.33;42.67;;;;;;;;5048927;28;8896;-78
2023/12/02 04:01:41;;;;;;;;;49.00;44.00;;;;;;;;5048968;28;8898;-77
2023/12/02 04:04:08;;;;;;;;;41.00;39.33;;;;;;;;5049525;28;8872;-77
2023/12/02 04:06:37;;;;;;;;;48.67;42.33;;;;;;;;5048808;28;8912;-79
2023/12/02 04:09:05;;;;;;;;;45.67;43.33;;;;;;;;5049741;28;8879;-78
2023/12/02 04:11:32;;;;;;;;;41.67;39.33;;;;;;;;5049091;28;8855;-78
2023/12/02 04:14:00;;;;;;;;;47.00;43.00;;;;;;;;5048380;28;9001;-78
2023/12/02 04:16:27;;;;;;;;;44.67;43.33;;;;;;;;5049108;28;8881;-78
2023/12/02 04:18:54;;;;;;;;;33.33;32.67;;;;;;;;5050965;28;8989;-78
2023/12/02 04:21:23;;;;;;;;;42.33;41.67;;;;;;;;5049352;28;8983;-79
2023/12/02 04:23:52;;;;;;;;;59.00;43.67;;;;;;;;5051639;28;8876;-76
2023/12/02 04:26:20;;;;;;;;;46.00;42.67;;;;;;;;5051380;28;8877;-77
2023/12/02 04:28:47;;;;;;;;;67.00;50.00;;;;;;;;5036425;28;8892;-76
2023/12/02 04:31:14;;;;;;;;;49.33;43.67;;;;;;;;5044528;28;8800;-77
2023/12/02 04:33:41;;;;;;;;;50.00;43.67;;;;;;;;5038471;28;8897;-78
2023/12/02 04:36:10;;;;;;;;;42.33;40.67;;;;;;;;5038826;28;8996;-78
2023/12/02 04:38:37;;;;;;;;;48.00;42.33;;;;;;;;5047309;28;8842;-78
2023/12/02 04:41:06;;;;;;;;;52.67;47.00;;;;;;;;5049721;28;8863;-78
2023/12/02 04:43:33;;;;;;;;;44.67;40.00;;;;;;;;5049995;28;8859;-79
2023/12/02 04:46:01;;;;;;;;;61.33;49.00;;;;;;;;5053336;28;8851;-78
2023/12/02 04:48:30;;;;;;;;;58.00;49.67;;;;;;;;5043872;28;8961;-78
2023/12/02 04:50:57;;;;;;;;;49.33;44.00;;;;;;;;5048993;28;8835;-77
2023/12/02 04:53:25;;;;;;;;;46.67;43.67;;;;;;;;5048125;28;8875;-77
2023/12/02 04:55:55;;;;;;;;;50.33;43.33;;;;;;;;5047921;28;8859;-77
2023/12/02 04:58:24;;;;;;;;;32.00;30.67;;;;;;;;5047210;28;8932;-78
2023/12/02 05:00:51;;;;;;;;;52.00;45.00;;;;;;;;5047289;28;8791;-78
2023/12/02 05:03:18;;;;;;;;;45.67;41.00;;;;;;;;5047907;28;8870;-78
2023/12/02 05:05:45;;;;;;;;;60.33;49.67;;;;;;;;5047888;28;9691;-79
2023/12/02 05:08:13;;;;;;;;;34.67;32.67;;;;;;;;5047544;28;8957;-78
2023/12/02 05:10:40;;;;;;;;;45.67;43.67;;;;;;;;5048223;28;8860;-78
2023/12/02 05:13:07;;;;;;;;;49.00;43.67;;;;;;;;5048091;28;8897;-78
2023/12/02 05:15:36;;;;;;;;;58.00;47.33;;;;;;;;5049707;28;8854;-78
2023/12/02 05:18:03;;;;;;;;;47.67;45.00;;;;;;;;5047842;28;8865;-78
2023/12/02 05:20:30;;;;;;;;;57.67;49.00;;;;;;;;5047863;28;9609;-78
2023/12/02 05:22:59;;;;;;;;;64.33;55.00;;;;;;;;5047548;28;8877;-78
2023/12/02 05:25:27;;;;;;;;;69.00;53.33;;;;;;;;5047889;28;9878;-78
2023/12/02 05:27:54;;;;;;;;;54.67;48.67;;;;;;;;5047505;28;9621;-77
2023/12/02 05:30:21;;;;;;;;;51.00;45.00;;;;;;;;5046726;28;8855;-78
2023/12/02 05:32:51;;;;;;;;;55.00;49.67;;;;;;;;5034991;28;8871;-78
2023/12/02 05:35:21;;;;;;;;;57.00;47.00;;;;;;;;5047454;28;8858;-78
2023/12/02 05:37:50;;;;;;;;;64.33;52.33;;;;;;;;5047848;28;8855;-78
2023/12/02 05:40:18;;;;;;;;;56.00;50.00;;;;;;;;5047041;28;8867;-78
2023/12/02 05:42:45;;;;;;;;;52.00;47.33;;;;;;;;5047917;28;8863;-78
2023/12/02 05:45:12;;;;;;;;;62.00;52.67;;;;;;;;5046995;28;9626;-78
2023/12/02 05:47:40;;;;;;;;;54.33;48.33;;;;;;;;5050923;28;8859;-78
2023/12/02 05:50:09;;;;;;;;;68.00;57.00;;;;;;;;5051527;28;8867;-78
2023/12/02 05:52:36;;;;;;;;;84.25;65.50;;;;;;;;5052420;28;8859;-78
2023/12/02 05:55:04;;;;;;;;;69.00;55.75;;;;;;;;5052447;28;8901;-78
2023/12/02 05:57:31;;;;;;;;;69.00;55.33;;;;;;;;5053019;28;8847;-78
2023/12/02 05:59:58;;;;;;;;;62.67;52.67;;;;;;;;5050552;28;8847;-79
2023/12/02 06:02:26;;;;;;;;;64.67;54.00;;;;;;;;5051402;28;8807;-78
2023/12/02 06:04:56;;;;;;;;;71.00;59.25;;;;;;;;5051268;28;8875;-78
2023/12/02 06:07:24;;;;;;;;;70.25;58.75;;;;;;;;5052182;28;8885;-78
2023/12/02 06:09:52;;;;;;;;;82.75;65.25;;;;;;;;5052023;28;8921;-78
2023/12/02 06:12:19;;;;;;;;;84.25;64.25;;;;;;;;5053151;28;8871;-78
2023/12/02 06:14:46;;;;;;;;;78.50;66.00;;;;;;;;5052951;28;8873;-77
2023/12/02 06:17:14;;;;;;;;;86.00;67.25;;;;;;;;5045717;28;8870;-77
2023/12/02 06:19:41;;;;;;;;;69.50;58.00;;;;;;;;5047799;28;8859;-76
2023/12/02 06:22:08;;;;;;;;;69.00;58.50;;;;;;;;5045914;28;8899;-78
2023/12/02 06:24:37;;;;;;;;;74.50;62.00;;;;;;;;5041450;28;8885;-79
2023/12/02 06:27:04;;;;;;;;;75.50;60.50;;;;;;;;5042451;28;8884;-77
2023/12/02 06:29:32;;;;;;;;;72.50;60.00;;;;;;;;5052599;28;9680;-78
2023/12/02 06:32:00;;;;;;;;;69.33;58.00;;;;;;;;5050277;28;8799;-78
2023/12/02 06:34:27;;;;;;;;;67.33;56.33;;;;;;;;5051865;28;8880;-77
2023/12/02 06:36:54;;;;;;;;;74.33;60.33;;;;;;;;5053542;28;8855;-78
2023/12/02 06:39:22;;;;;;;;;71.00;57.00;;;;;;;;5052453;28;8855;-78
2023/12/02 06:41:50;;;;;;;;;62.33;50.00;;;;;;;;5045867;28;8875;-77
2023/12/02 06:44:18;;;;;;;;;59.67;50.00;;;;;;;;5050644;28;8847;-78
2023/12/02 06:46:45;;;;;;;;;61.00;51.00;;;;;;;;5050350;28;8847;-77
2023/12/02 06:49:12;;;;;;;;;52.67;47.33;;;;;;;;5050029;28;9606;-77
2023/12/02 06:51:40;;;;;;;;;73.50;58.50;;;;;;;;5050133;28;8854;-78
2023/12/02 06:54:07;;;;;;;;;82.75;68.00;;;;;;;;5049409;28;8858;-77
2023/12/02 06:56:34;;;;;;;;;57.75;46.00;;;;;;;;5046250;28;8861;-79
2023/12/02 06:59:03;;;;;;;;;71.25;58.00;;;;;;;;5049424;28;8865;-77
2023/12/02 07:01:32;;;;;;;;;63.00;54.67;;;;;;;;5049264;28;8829;-77
2023/12/02 07:04:03;;;;;;;;;94.00;72.25;;;;;;;;5050046;28;8901;-78
2023/12/02 07:06:31;;;;;;;;;91.00;73.50;;;;;;;;5048670;28;9691;-78
2023/12/02 07:09:00;;;;;;;;;105.25;91.00;;;;;;;;5050389;28;8851;-78
2023/12/02 07:11:30;;;;;;;;;86.75;69.25;;;;;;;;5050426;28;8847;-77
2023/12/02 07:13:57;;;;;;;;;79.50;62.75;;;;;;;;5050469;28;8847;-78
2023/12/02 07:16:26;;;;;;;;;67.75;57.00;;;;;;;;5049620;28;8859;-77
2023/12/02 07:18:53;;;;;;;;;60.00;52.00;;;;;;;;5050230;28;8863;-77
2023/12/02 07:21:21;;;;;;;;;68.67;58.67;;;;;;;;5049573;28;8896;-78
2023/12/02 07:23:48;;;;;;;;;58.33;48.33;;;;;;;;5050178;28;8878;-78
2023/12/02 07:26:16;;;;;;;;;46.33;44.67;;;;;;;;5049447;28;8885;-78
2023/12/02 07:28:43;;;;;;;;;56.67;48.00;;;;;;;;5049981;28;8863;-83
2023/12/02 07:31:13;;;;;;;;;60.67;50.00;;;;;;;;5058502;28;8810;-79
2023/12/02 07:33:42;;;;;;;;;55.00;48.67;;;;;;;;5045808;28;8846;-78
2023/12/02 07:36:10;;;;;;;;;62.33;52.67;;;;;;;;5050188;28;8851;-79
2023/12/02 07:38:38;;;;;;;;;62.00;49.67;;;;;;;;5049592;28;8857;-81
2023/12/02 07:41:06;;;;;;;;;50.67;46.33;;;;;;;;5050791;28;8875;-84
2023/12/02 07:43:34;;;;;;;;;63.33;51.33;;;;;;;;5049481;28;8862;-81
2023/12/02 07:46:01;;;;;;;;;62.67;54.67;;;;;;;;5051216;28;8924;-81
2023/12/02 07:48:28;;;;;;;;;54.67;48.00;;;;;;;;5050453;28;8839;-80
2023/12/02 07:50:57;;;;;;;;;57.33;49.00;;;;;;;;5050546;28;9777;-83
2023/12/02 07:53:24;;;;;;;;;45.00;43.67;;;;;;;;5047109;28;8859;-78
2023/12/02 07:55:51;;;;;;;;;58.33;49.67;;;;;;;;5049533;28;8880;-82
2023/12/02 07:58:19;;;;;;;;;63.33;49.00;;;;;;;;5049592;28;8855;-77
2023/12/02 08:00:46;;;;;;;;;50.67;45.00;;;;;;;;5051541;28;8814;-81
2023/12/02 08:03:13;;;;;;;;;63.00;53.67;;;;;;;;5051722;28;8863;-80
2023/12/02 08:05:40;;;;;;;;;61.00;51.00;;;;;;;;5054639;28;8891;-80
2023/12/02 08:08:09;;;;;;;;;45.33;41.33;;;;;;;;5053858;28;8973;-77
2023/12/02 08:10:35;;;;;;;;;51.00;45.33;;;;;;;;5044227;28;8850;-80
2023/12/02 08:13:03;;;;;;;;;53.00;43.67;;;;;;;;5044600;28;8839;-78
2023/12/02 08:15:30;;;;;;;;;50.33;45.67;;;;;;;;5045828;28;8865;-79
2023/12/02 08:17:57;;;;;;;;;54.67;47.67;;;;;;;;5045829;28;8908;-79
2023/12/02 08:20:24;;;;;;;;;55.33;47.33;;;;;;;;5053647;28;8848;-76
2023/12/02 08:22:51;;;;;;;;;49.33;43.67;;;;;;;;5051381;28;9658;-78
2023/12/02 08:25:20;;;;;;;;;65.33;54.33;;;;;;;;5049908;28;8886;-76
2023/12/02 08:27:47;;;;;;;;;55.67;49.00;;;;;;;;5050508;28;8867;-76
2023/12/02 08:30:15;;;;;;;;;64.33;52.00;;;;;;;;5046671;28;8877;-81
2023/12/02 08:32:42;;;;;;;;;60.33;49.33;;;;;;;;5047162;28;8873;-77
2023/12/02 08:35:09;;;;;;;;;52.00;45.67;;;;;;;;5033203;28;8834;-75
2023/12/02 08:37:37;;;;;;;;;57.00;48.00;;;;;;;;5047503;28;8851;-79
2023/12/02 08:40:05;;;;;;;;;48.00;44.33;;;;;;;;5048221;28;8859;-79
2023/12/02 08:42:33;;;;;;;;;48.00;45.33;;;;;;;;5048062;28;8863;-75
2023/12/02 08:45:02;;;;;;;;;57.67;49.33;;;;;;;;5048051;28;8870;-80
2023/12/02 08:47:29;;;;;;;;;52.33;44.67;;;;;;;;5048531;28;8819;-77
2023/12/02 08:49:56;;;;;;;;;61.00;48.00;;;;;;;;5048380;28;8865;-80
2023/12/02 08:52:23;;;;;;;;;47.00;43.33;;;;;;;;5048243;28;8873;-78
2023/12/02 08:54:51;;;;;;;;;67.33;53.00;;;;;;;;5048158;28;9381;-75
2023/12/02 08:57:18;;;;;;;;;63.33;50.00;;;;;;;;5047237;28;8843;-76
2023/12/02 08:59:47;;;;;;;;;60.67;52.33;;;;;;;;5048023;28;8847;-76
2023/12/02 09:02:14;;;;;;;;;50.67;46.67;;;;;;;;5047657;28;8846;-78
2023/12/02 09:04:41;;;;;;;;;71.00;56.75;;;;;;;;5047345;28;8992;-80
2023/12/02 09:07:08;;;;;;;;;51.00;46.00;;;;;;;;5048148;28;8858;-79
2023/12/02 09:09:35;;;;;;;;;53.00;45.33;;;;;;;;5047568;28;8941;-82
2023/12/02 09:12:03;;;;;;;;;58.00;49.00;;;;;;;;5048104;28;8875;-78
2023/12/02 09:14:30;;;;;;;;;47.33;44.00;;;;;;;;5047929;28;8965;-79
2023/12/02 09:16:59;;;;;;;;;47.00;43.33;;;;;;;;5050746;28;8881;-79
2023/12/02 09:19:56;;;;;;;;;58.33;50.00;;;;;;;;5048572;28;8839;-79
2023/12/02 09:22:53;;;;;;;;;60.00;50.67;;;;;;;;5042440;28;8859;-82
2023/12/02 09:25:28;;;;;;;;;71.00;51.33;;;;;;;;5006570;28;8892;-80
2023/12/02 09:28:19;;;;;;;;;49.67;40.00;;;;;;;;5039931;28;8847;-79
2023/12/02 09:30:53;;;;;;;;;57.67;48.00;;;;;;;;5047788;28;9589;-80
2023/12/02 09:33:21;;;;;;;;;57.00;45.67;;;;;;;;5048418;28;8851;-82
2023/12/02 09:35:56;;;;;;;;;59.33;45.67;;;;;;;;5047326;28;8851;-80
2023/12/02 09:38:23;;;;;;;;;59.00;48.33;;;;;;;;5048179;28;8847;-77
2023/12/02 09:41:25;;;;;;;;;66.33;52.67;;;;;;;;5048033;28;8843;-82
2023/12/02 09:44:03;;;;;;;;;63.00;52.00;;;;;;;;5041038;28;8875;-76
2023/12/02 09:46:33;;;;;;;;;68.00;52.33;;;;;;;;5049174;28;8839;-83
2023/12/02 09:49:36;;;;;;;;;59.33;48.00;;;;;;;;5048637;28;8836;-81
2023/12/02 09:52:25;;;;;;;;;69.67;55.00;;;;;;;;5049400;28;8973;-82
2023/12/02 09:54:58;;;;;;;;;59.00;49.00;;;;;;;;5050808;28;8975;-80
2023/12/02 09:57:33;;;;;;;;;60.00;45.33;;;;;;;;5052517;28;8989;-83
2023/12/02 10:00:09;;;;;;;;;55.67;47.33;;;;;;;;5051034;28;8901;-83
2023/12/02 10:02:49;;;;;;;;;39.33;31.67;;;;;;;;5053400;28;8942;-82
2023/12/02 10:05:18;;;;;;;;;52.67;44.33;;;;;;;;5052616;28;8993;-77
2023/12/02 10:07:56;;;;;;;;;61.67;48.67;;;;;;;;5051430;28;8874;-82
2023/12/02 10:10:42;;;;;;;;;52.67;44.00;;;;;;;;5038402;28;8899;-77
2023/12/02 10:13:20;;;;;;;;;62.00;47.33;;;;;;;;5048198;28;8863;-80
2023/12/02 10:15:49;;;;;;;;;56.67;48.33;;;;;;;;5049985;28;8835;-81
2023/12/02 10:18:18;;;;;;;;;54.33;43.00;;;;;;;;5049743;28;8882;-81
2023/12/02 10:20:52;;;;;;;;;54.33;43.67;;;;;;;;5048869;28;9700;-85
2023/12/02 10:23:25;;;;;;;;;44.00;37.67;;;;;;;;5048251;28;8855;-81
2023/12/02 10:26:02;;;;;;;;;53.33;41.00;;;;;;;;5047343;28;8858;-79
2023/12/02 10:28:45;;;;;;;;;55.33;45.00;;;;;;;;5048207;28;8963;-81
2023/12/02 10:31:19;;;;;;;;;57.33;44.33;;;;;;;;5045253;28;8815;-79
2023/12/02 10:33:57;;;;;;;;;56.00;43.33;;;;;;;;5049473;28;8873;-79
2023/12/02 10:36:28;;;;;;;;;49.67;42.67;;;;;;;;5041106;28;8886;-80
2023/12/02 10:39:05;;;;;;;;;47.00;41.33;;;;;;;;5050326;28;8855;-76
2023/12/02 10:41:42;;;;;;;;;59.00;46.67;;;;;;;;5051347;28;11588;-76
2023/12/02 10:44:09;;;;;;;;;49.67;42.00;;;;;;;;5048392;28;11667;-82
2023/12/02 10:46:37;;;;;;;;;61.00;47.67;;;;;;;;5051154;28;11711;-77
2023/12/02 10:49:04;;;;;;;;;48.33;38.33;;;;;;;;5050148;28;11595;-80
2023/12/02 10:51:39;;;;;;;;;53.67;43.33;;;;;;;;5050949;28;11696;-81
2023/12/02 10:54:07;;;;;;;;;58.67;46.33;;;;;;;;5050198;28;11559;-80
2023/12/02 10:56:39;;;;;;;;;47.00;41.33;;;;;;;;5049145;28;11720;-80
2023/12/02 10:59:07;;;;;;;;;46.00;38.67;;;;;;;;5051094;28;11629;-81
2023/12/02 11:01:38;;;;;;;;;47.75;41.50;;;;;;;;5050371;28;11526;-84
2023/12/02 11:04:14;;;;;;;;;54.25;44.50;;;;;;;;5050338;28;11570;-81
2023/12/02 11:06:48;;;;;;;;;51.50;42.50;;;;;;;;5049908;28;11564;-83
2023/12/02 11:09:20;;;;;;;;;48.00;42.75;;;;;;;;5050162;28;11591;-79
2023/12/02 11:11:57;;;;;;;;;59.33;46.67;;;;;;;;5038767;28;11634;-79
2023/12/02 11:14:25;;;;;;;;;57.00;46.00;;;;;;;;5050009;28;11604;-77
2023/12/02 11:17:07;;;;;;;;;51.75;38.50;;;;;;;;5050492;28;11569;-82
2023/12/02 11:19:48;;;;;;;;;47.25;43.00;;;;;;;;5050045;28;11600;-79
2023/12/02 11:22:36;;;;;;;;;49.00;41.50;;;;;;;;5051262;28;11591;-84
2023/12/02 11:25:14;;;;;;;;;47.00;42.50;;;;;;;;5045513;28;11720;-75
2023/12/02 11:27:49;;;;;;;;;36.50;35.25;;;;;;;;5054024;28;11636;-80
2023/12/02 11:30:26;;;;;;;;;50.00;39.25;;;;;;;;5049967;28;11670;-80
2023/12/02 11:33:02;;;;;;;;;43.50;40.50;;;;;;;;5043641;28;11751;-75
2023/12/02 11:35:34;;;;;;;;;44.25;32.75;;;;;;;;5048218;28;12482;-79
2023/12/02 11:38:12;;;;;;;;;45.75;39.25;;;;;;;;5050907;28;11560;-80
2023/12/02 11:41:00;;;;;;;;;42.00;37.50;;;;;;;;5049504;28;11605;-77
2023/12/02 11:43:55;;;;;;;;;47.50;41.25;;;;;;;;5051849;28;11591;-75
2023/12/02 11:46:24;;;;;;;;;53.00;42.00;;;;;;;;5053655;28;11578;-76
2023/12/02 11:49:00;;;;;;;;;48.00;41.75;;;;;;;;5044003;28;11615;-82
2023/12/02 11:51:42;;;;;;;;;44.25;37.50;;;;;;;;5053684;28;11701;-77
2023/12/02 11:54:26;;;;;;;;;43.00;39.00;;;;;;;;5055177;28;11572;-83
2023/12/02 11:57:17;;;;;;;;;48.25;37.00;;;;;;;;5052594;28;12171;-75
2023/12/02 11:59:58;;;;;;;;;43.00;38.25;;;;;;;;5046354;28;11611;-81
2023/12/02 12:02:42;;;;;;;;;44.25;37.00;;;;;;;;5036264;28;11654;-75
2023/12/02 12:05:25;;;;;;;;;41.75;34.25;;;;;;;;5050394;28;11580;-80
2023/12/02 12:08:02;;;;;;;;;47.00;41.00;;;;;;;;5051793;28;11577;-79
2023/12/02 12:10:35;;;;;;;;;47.75;38.75;;;;;;;;5049955;28;11581;-78
2023/12/02 12:13:04;;;;;;;;;51.25;37.75;;;;;;;;5039170;28;11620;-81
2023/12/02 12:15:31;;;;;;;;;40.50;35.75;;;;;;;;5049196;28;11591;-79
2023/12/02 12:17:58;;;;;;;;;42.00;39.50;;;;;;;;5046446;28;11695;-83
2023/12/02 12:20:26;;;;;;;;;38.25;37.50;;;;;;;;5048710;28;11675;-76
2023/12/02 12:22:54;;;;;;;;;43.25;38.75;;;;;;;;5048211;28;11547;-77
2023/12/02 12:25:25;;;;;;;;;47.00;40.00;;;;;;;;5049299;28;11565;-78
2023/12/02 12:27:53;;;;;;;;;39.75;35.50;;;;;;;;5046480;28;11688;-81
2023/12/02 12:30:20;;;;;;;;;45.50;39.25;;;;;;;;5048806;28;11689;-80
2023/12/02 12:32:50;;;;;;;;;35.75;30.00;;;;;;;;5048043;28;11572;-80
2023/12/02 12:35:19;;;;;;;;;38.00;33.75;;;;;;;;5048008;28;11728;-80
2023/12/02 12:37:46;;;;;;;;;49.00;40.00;;;;;;;;5048456;28;11629;-76
2023/12/02 12:40:14;;;;;;;;;48.00;39.00;;;;;;;;5048176;28;11606;-78
2023/12/02 12:42:48;;;;;;;;;39.25;35.25;;;;;;;;5048162;28;11637;-75
2023/12/02 12:45:16;;;;;;;;;45.75;39.50;;;;;;;;5048188;28;11562;-75
2023/12/02 12:47:43;;;;;;;;;31.25;29.50;;;;;;;;5048168;28;11696;-81
2023/12/02 12:50:12;;;;;;;;;42.25;36.25;;;;;;;;5048422;28;11694;-81
2023/12/02 12:52:49;;;;;;;;;43.75;36.50;;;;;;;;5048007;28;11593;-77
2023/12/02 12:55:20;;;;;;;;;49.00;39.75;;;;;;;;5047975;28;11602;-80
2023/12/02 12:57:54;;;;;;;;;48.50;40.00;;;;;;;;5047065;28;11573;-80
2023/12/02 13:00:27;;;;;;;;;45.00;40.00;;;;;;;;5047234;28;11563;-80
2023/12/02 13:03:27;;;;;;;;;43.00;35.50;;;;;;;;5047878;28;11569;-79
2023/12/02 13:06:13;;;;;;;;;50.00;39.50;;;;;;;;5040884;28;12383;-79
2023/12/02 13:08:49;;;;;;;;;41.00;36.00;;;;;;;;5036821;28;11598;-78
2023/12/02 13:11:21;;;;;;;;;49.75;42.25;;;;;;;;5048049;28;11581;-79
2023/12/02 13:13:54;;;;;;;;;44.50;37.00;;;;;;;;5048493;28;11568;-81
2023/12/02 13:16:24;;;;;;;;;46.00;38.50;;;;;;;;5047759;28;11589;-81
2023/12/02 13:18:51;;;;;;;;;53.25;41.50;;;;;;;;5047849;28;11590;-80
2023/12/02 13:21:20;;;;;;;;;42.75;37.25;;;;;;;;5047840;28;11661;-79
2023/12/02 13:23:48;;;;;;;;;44.50;38.50;;;;;;;;5048166;28;11646;-81
2023/12/02 13:26:18;;;;;;;;;46.25;42.00;;;;;;;;5048130;28;11619;-80
2023/12/02 13:28:47;;;;;;;;;48.75;39.25;;;;;;;;5048943;28;11572;-79
2023/12/02 13:31:15;;;;;;;;;43.50;38.50;;;;;;;;5037558;28;11655;-80
2023/12/02 13:33:51;;;;;;;;;41.50;39.00;;;;;;;;5045367;28;11712;-81
2023/12/02 13:36:31;;;;;;;;;38.50;36.75;;;;;;;;5052172;28;11574;-75
2023/12/02 13:39:04;;;;;;;;;51.25;41.75;;;;;;;;5051472;28;11595;-80
2023/12/02 13:41:46;;;;;;;;;31.75;30.00;;;;;;;;5052660;28;11601;-81
2023/12/02 13:44:16;;;;;;;;;38.75;37.75;;;;;;;;5039414;28;11579;-81
2023/12/02 13:46:54;;;;;;;;;46.75;39.50;;;;;;;;5048209;28;11672;-80
2023/12/02 13:49:26;;;;;;;;;43.00;33.00;;;;;;;;5048671;28;11581;-80
2023/12/02 13:52:02;;;;;;;;;43.75;38.25;;;;;;;;5049425;28;11562;-75
2023/12/02 13:54:37;;;;;;;;;49.00;41.50;;;;;;;;5050472;28;11578;-78
2023/12/02 13:57:11;;;;;;;;;45.75;39.25;;;;;;;;5047096;28;12323;-75
2023/12/02 13:59:42;;;;;;;;;37.75;35.25;;;;;;;;5046508;28;11581;-77
2023/12/02 14:02:22;;;;;;;;;38.75;34.75;;;;;;;;5034953;28;11534;-79
2023/12/02 14:05:03;;;;;;;;;46.25;38.50;;;;;;;;5046473;28;11740;-76
2023/12/02 14:07:31;;;;;;;;;54.25;41.25;;;;;;;;5047212;28;11585;-80
2023/12/02 14:09:59;;;;;;;;;42.75;34.75;;;;;;;;5049857;28;11570;-80
2023/12/02 14:12:44;;;;;;;;;28.25;28.25;;;;;;;;5051026;28;11572;-79
2023/12/02 14:15:22;;;;;;;;;34.50;32.50;;;;;;;;5039399;28;11589;-78
2023/12/02 14:17:59;;;;;;;;;42.25;35.00;;;;;;;;5050639;28;11686;-80
2023/12/02 14:20:44;;;;;;;;;39.00;32.75;;;;;;;;5050453;28;11595;-74
2023/12/02 14:23:31;;;;;;;;;34.25;32.50;;;;;;;;5048287;28;11726;-79
2023/12/02 14:26:23;;;;;;;;;33.50;29.50;;;;;;;;5048883;28;11571;-80
2023/12/02 14:28:57;;;;;;;;;34.50;30.75;;;;;;;;5043345;28;11585;-79
2023/12/02 14:31:38;;;;;;;;;39.00;35.50;;;;;;;;5048633;28;11534;-78
2023/12/02 14:34:32;;;;;;;;;27.50;27.25;;;;;;;;5049179;28;11699;-80
2023/12/02 14:37:26;;;;;;;;;29.75;29.75;;;;;;;;5043074;28;11650;-79
2023/12/02 14:40:10;;;;;;;;;32.75;30.50;;;;;;;;5050709;28;11552;-76
2023/12/02 14:42:48;;;;;;;;;31.00;29.50;;;;;;;;5049152;28;11591;-77
2023/12/02 14:45:17;;;;;;;;;30.25;28.75;;;;;;;;5051416;28;11581;-80
2023/12/02 14:47:45;;;;;;;;;33.75;29.25;;;;;;;;5051326;28;11590;-80